sensor_id;sensor_type;location;lat;lon;timestamp;temperature;humidity
70947;DHT22;58605;48.700;8.760;2023-10-09T00:02:26;10.30;84.90
70947;DHT22;58605;48.700;8.760;2023-10-09T00:04:52;10.30;85.00
70947;DHT22;58605;48.700;8.760;2023-10-09T00:07:18;10.20;85.50
70947;DHT22;58605;48.700;8.760;2023-10-09T00:09:46;10.20;85.60
70947;DHT22;58605;48.700;8.760;2023-10-09T00:12:21;10.30;85.20
70947;DHT22;58605;48.700;8.760;2023-10-09T00:14:54;10.30;85.20
70947;DHT22;58605;48.700;8.760;2023-10-09T00:17:36;10.20;85.10
70947;DHT22;58605;48.700;8.760;2023-10-09T00:20:04;10.20;85.80
70947;DHT22;58605;48.700;8.760;2023-10-09T00:22:43;10.20;86.20
70947;DHT22;58605;48.700;8.760;2023-10-09T00:25:12;10.30;87.20
70947;DHT22;58605;48.700;8.760;2023-10-09T00:27:41;10.40;85.70
70947;DHT22;58605;48.700;8.760;2023-10-09T00:30:17;10.60;86.70
70947;DHT22;58605;48.700;8.760;2023-10-09T00:32:46;10.70;85.80
70947;DHT22;58605;48.700;8.760;2023-10-09T00:35:25;10.70;84.00
70947;DHT22;58605;48.700;8.760;2023-10-09T00:38:09;10.50;83.20
70947;DHT22;58605;48.700;8.760;2023-10-09T00:40:55;10.40;84.10
70947;DHT22;58605;48.700;8.760;2023-10-09T00:43:33;10.20;84.70
70947;DHT22;58605;48.700;8.760;2023-10-09T00:46:02;10.10;85.00
70947;DHT22;58605;48.700;8.760;2023-10-09T00:48:49;10.10;85.60
70947;DHT22;58605;48.700;8.760;2023-10-09T00:51:16;10.00;85.70
70947;DHT22;58605;48.700;8.760;2023-10-09T00:53:49;10.00;86.00
70947;DHT22;58605;48.700;8.760;2023-10-09T00:56:18;10.00;85.70
70947;DHT22;58605;48.700;8.760;2023-10-09T00:58:46;9.90;87.00
70947;DHT22;58605;48.700;8.760;2023-10-09T01:01:15;9.90;87.20
70947;DHT22;58605;48.700;8.760;2023-10-09T01:03:42;10.00;86.90
70947;DHT22;58605;48.700;8.760;2023-10-09T01:06:11;10.00;87.10
70947;DHT22;58605;48.700;8.760;2023-10-09T01:08:39;10.20;88.10
70947;DHT22;58605;48.700;8.760;2023-10-09T01:11:10;10.50;87.90
70947;DHT22;58605;48.700;8.760;2023-10-09T01:13:45;10.80;87.10
70947;DHT22;58605;48.700;8.760;2023-10-09T01:16:14;10.90;86.40
70947;DHT22;58605;48.700;8.760;2023-10-09T01:18:43;11.10;86.80
70947;DHT22;58605;48.700;8.760;2023-10-09T01:21:11;11.20;84.90
70947;DHT22;58605;48.700;8.760;2023-10-09T01:23:42;11.00;83.30
70947;DHT22;58605;48.700;8.760;2023-10-09T01:26:29;10.70;83.20
70947;DHT22;58605;48.700;8.760;2023-10-09T01:29:10;10.50;83.70
70947;DHT22;58605;48.700;8.760;2023-10-09T01:31:40;10.40;85.20
70947;DHT22;58605;48.700;8.760;2023-10-09T01:34:12;10.20;84.30
70947;DHT22;58605;48.700;8.760;2023-10-09T01:36:39;10.00;85.40
70947;DHT22;58605;48.700;8.760;2023-10-09T01:39:07;9.90;87.60
70947;DHT22;58605;48.700;8.760;2023-10-09T01:41:49;9.90;87.90
70947;DHT22;58605;48.700;8.760;2023-10-09T01:44:17;10.00;87.20
70947;DHT22;58605;48.700;8.760;2023-10-09T01:46:45;10.10;87.40
70947;DHT22;58605;48.700;8.760;2023-10-09T01:49:14;10.10;87.30
70947;DHT22;58605;48.700;8.760;2023-10-09T01:51:47;10.00;87.10
70947;DHT22;58605;48.700;8.760;2023-10-09T01:54:16;10.20;87.20
70947;DHT22;58605;48.700;8.760;2023-10-09T01:56:59;10.30;87.00
70947;DHT22;58605;48.700;8.760;2023-10-09T01:59:31;10.40;86.80
70947;DHT22;58605;48.700;8.760;2023-10-09T02:02:19;10.50;86.50
70947;DHT22;58605;48.700;8.760;2023-10-09T02:04:53;10.40;86.60
70947;DHT22;58605;48.700;8.760;2023-10-09T02:07:20;10.40;86.30
70947;DHT22;58605;48.700;8.760;2023-10-09T02:09:56;10.40;86.40
70947;DHT22;58605;48.700;8.760;2023-10-09T02:12:22;10.40;87.00
70947;DHT22;58605;48.700;8.760;2023-10-09T02:14:50;10.50;86.80
70947;DHT22;58605;48.700;8.760;2023-10-09T02:17:20;10.60;87.10
70947;DHT22;58605;48.700;8.760;2023-10-09T02:19:46;10.80;86.90
70947;DHT22;58605;48.700;8.760;2023-10-09T02:22:15;10.80;86.00
70947;DHT22;58605;48.700;8.760;2023-10-09T02:24:44;10.60;85.90
70947;DHT22;58605;48.700;8.760;2023-10-09T02:27:15;10.50;86.10
70947;DHT22;58605;48.700;8.760;2023-10-09T02:30:00;10.40;86.10
70947;DHT22;58605;48.700;8.760;2023-10-09T02:32:34;10.30;86.70
70947;DHT22;58605;48.700;8.760;2023-10-09T02:35:01;10.30;86.80
70947;DHT22;58605;48.700;8.760;2023-10-09T02:37:36;10.30;87.30
70947;DHT22;58605;48.700;8.760;2023-10-09T02:40:04;10.30;87.30
70947;DHT22;58605;48.700;8.760;2023-10-09T02:42:36;10.20;87.70
70947;DHT22;58605;48.700;8.760;2023-10-09T02:45:08;10.30;87.90
70947;DHT22;58605;48.700;8.760;2023-10-09T02:47:36;10.30;88.10
70947;DHT22;58605;48.700;8.760;2023-10-09T02:50:06;10.30;88.20
70947;DHT22;58605;48.700;8.760;2023-10-09T02:52:45;10.50;87.70
70947;DHT22;58605;48.700;8.760;2023-10-09T02:55:13;10.70;87.10
70947;DHT22;58605;48.700;8.760;2023-10-09T02:57:55;10.80;86.90
70947;DHT22;58605;48.700;8.760;2023-10-09T03:00:37;10.80;87.10
70947;DHT22;58605;48.700;8.760;2023-10-09T03:03:04;10.80;87.20
70947;DHT22;58605;48.700;8.760;2023-10-09T03:05:33;10.70;87.20
70947;DHT22;58605;48.700;8.760;2023-10-09T03:07:59;10.80;87.10
70947;DHT22;58605;48.700;8.760;2023-10-09T03:10:26;10.70;86.90
70947;DHT22;58605;48.700;8.760;2023-10-09T03:12:52;10.70;87.20
70947;DHT22;58605;48.700;8.760;2023-10-09T03:15:23;10.70;87.20
70947;DHT22;58605;48.700;8.760;2023-10-09T03:17:49;10.70;87.50
70947;DHT22;58605;48.700;8.760;2023-10-09T03:20:16;10.60;87.70
70947;DHT22;58605;48.700;8.760;2023-10-09T03:22:44;10.60;87.60
70947;DHT22;58605;48.700;8.760;2023-10-09T03:25:14;10.60;87.90
70947;DHT22;58605;48.700;8.760;2023-10-09T03:27:43;10.60;88.20
70947;DHT22;58605;48.700;8.760;2023-10-09T03:30:13;10.50;88.50
70947;DHT22;58605;48.700;8.760;2023-10-09T03:32:46;10.60;87.90
70947;DHT22;58605;48.700;8.760;2023-10-09T03:35:17;10.60;87.70
70947;DHT22;58605;48.700;8.760;2023-10-09T03:37:53;10.60;87.80
70947;DHT22;58605;48.700;8.760;2023-10-09T03:40:23;10.40;87.70
70947;DHT22;58605;48.700;8.760;2023-10-09T03:42:49;10.40;88.10
70947;DHT22;58605;48.700;8.760;2023-10-09T03:45:15;10.40;87.80
70947;DHT22;58605;48.700;8.760;2023-10-09T03:47:53;10.40;87.50
70947;DHT22;58605;48.700;8.760;2023-10-09T03:50:27;10.40;87.90
70947;DHT22;58605;48.700;8.760;2023-10-09T03:53:02;10.30;87.40
70947;DHT22;58605;48.700;8.760;2023-10-09T03:55:29;10.30;87.70
70947;DHT22;58605;48.700;8.760;2023-10-09T03:57:56;10.20;87.70
70947;DHT22;58605;48.700;8.760;2023-10-09T04:00:24;10.20;87.90
70947;DHT22;58605;48.700;8.760;2023-10-09T04:02:55;10.20;88.00
70947;DHT22;58605;48.700;8.760;2023-10-09T04:05:22;10.10;88.10
70947;DHT22;58605;48.700;8.760;2023-10-09T04:07:49;10.10;88.10
70947;DHT22;58605;48.700;8.760;2023-10-09T04:10:15;10.00;88.10
70947;DHT22;58605;48.700;8.760;2023-10-09T04:13:10;10.00;88.10
70947;DHT22;58605;48.700;8.760;2023-10-09T04:15:42;10.00;88.30
70947;DHT22;58605;48.700;8.760;2023-10-09T04:18:11;9.90;89.10
70947;DHT22;58605;48.700;8.760;2023-10-09T04:20:41;9.80;88.80
70947;DHT22;58605;48.700;8.760;2023-10-09T04:23:33;9.80;88.90
70947;DHT22;58605;48.700;8.760;2023-10-09T04:26:02;9.70;89.40
70947;DHT22;58605;48.700;8.760;2023-10-09T04:28:36;9.70;89.20
70947;DHT22;58605;48.700;8.760;2023-10-09T04:31:03;9.70;89.30
70947;DHT22;58605;48.700;8.760;2023-10-09T04:33:33;9.70;89.90
70947;DHT22;58605;48.700;8.760;2023-10-09T04:36:02;9.80;89.70
70947;DHT22;58605;48.700;8.760;2023-10-09T04:38:46;9.80;89.50
70947;DHT22;58605;48.700;8.760;2023-10-09T04:41:42;9.80;89.30
70947;DHT22;58605;48.700;8.760;2023-10-09T04:44:08;9.80;89.10
70947;DHT22;58605;48.700;8.760;2023-10-09T04:46:43;9.90;90.00
70947;DHT22;58605;48.700;8.760;2023-10-09T04:49:11;10.10;89.10
70947;DHT22;58605;48.700;8.760;2023-10-09T04:51:53;10.30;88.80
70947;DHT22;58605;48.700;8.760;2023-10-09T04:54:33;10.30;88.10
70947;DHT22;58605;48.700;8.760;2023-10-09T04:57:05;10.30;88.00
70947;DHT22;58605;48.700;8.760;2023-10-09T04:59:44;10.20;88.20
70947;DHT22;58605;48.700;8.760;2023-10-09T05:02:14;10.20;88.60
70947;DHT22;58605;48.700;8.760;2023-10-09T05:04:47;10.30;88.80
70947;DHT22;58605;48.700;8.760;2023-10-09T05:07:17;10.40;88.60
70947;DHT22;58605;48.700;8.760;2023-10-09T05:09:49;10.50;88.60
70947;DHT22;58605;48.700;8.760;2023-10-09T05:12:21;10.50;88.50
70947;DHT22;58605;48.700;8.760;2023-10-09T05:14:52;10.50;88.20
70947;DHT22;58605;48.700;8.760;2023-10-09T05:17:35;10.60;88.70
70947;DHT22;58605;48.700;8.760;2023-10-09T05:20:04;10.60;88.70
70947;DHT22;58605;48.700;8.760;2023-10-09T05:22:50;10.60;88.60
70947;DHT22;58605;48.700;8.760;2023-10-09T05:25:23;10.60;88.50
70947;DHT22;58605;48.700;8.760;2023-10-09T05:28:09;10.60;88.20
70947;DHT22;58605;48.700;8.760;2023-10-09T05:30:51;10.70;88.70
70947;DHT22;58605;48.700;8.760;2023-10-09T05:33:29;10.60;87.80
70947;DHT22;58605;48.700;8.760;2023-10-09T05:35:57;10.60;88.10
70947;DHT22;58605;48.700;8.760;2023-10-09T05:38:42;10.60;88.60
70947;DHT22;58605;48.700;8.760;2023-10-09T05:41:12;10.50;88.50
70947;DHT22;58605;48.700;8.760;2023-10-09T05:44:11;10.50;88.30
70947;DHT22;58605;48.700;8.760;2023-10-09T05:46:55;10.40;88.80
70947;DHT22;58605;48.700;8.760;2023-10-09T05:49:40;10.50;89.10
70947;DHT22;58605;48.700;8.760;2023-10-09T05:52:22;10.50;88.60
70947;DHT22;58605;48.700;8.760;2023-10-09T05:55:04;10.50;88.60
70947;DHT22;58605;48.700;8.760;2023-10-09T05:57:49;10.60;89.20
70947;DHT22;58605;48.700;8.760;2023-10-09T06:00:21;10.60;88.90
70947;DHT22;58605;48.700;8.760;2023-10-09T06:03:05;10.60;89.30
70947;DHT22;58605;48.700;8.760;2023-10-09T06:05:47;10.60;89.80
70947;DHT22;58605;48.700;8.760;2023-10-09T06:08:21;10.80;89.10
70947;DHT22;58605;48.700;8.760;2023-10-09T06:11:14;10.90;89.30
70947;DHT22;58605;48.700;8.760;2023-10-09T06:14:00;11.00;90.10
70947;DHT22;58605;48.700;8.760;2023-10-09T06:16:35;11.10;89.70
70947;DHT22;58605;48.700;8.760;2023-10-09T06:19:05;11.10;88.90
70947;DHT22;58605;48.700;8.760;2023-10-09T06:21:34;11.20;89.40
70947;DHT22;58605;48.700;8.760;2023-10-09T06:24:21;11.40;89.40
70947;DHT22;58605;48.700;8.760;2023-10-09T06:26:52;11.40;88.30
70947;DHT22;58605;48.700;8.760;2023-10-09T06:29:24;11.50;88.70
70947;DHT22;58605;48.700;8.760;2023-10-09T06:32:17;11.60;87.60
70947;DHT22;58605;48.700;8.760;2023-10-09T06:34:44;11.50;87.50
70947;DHT22;58605;48.700;8.760;2023-10-09T06:37:11;11.50;87.70
70947;DHT22;58605;48.700;8.760;2023-10-09T06:39:52;11.50;88.50
70947;DHT22;58605;48.700;8.760;2023-10-09T06:42:21;11.60;88.50
70947;DHT22;58605;48.700;8.760;2023-10-09T06:45:07;11.60;88.20
70947;DHT22;58605;48.700;8.760;2023-10-09T06:47:41;11.90;88.50
70947;DHT22;58605;48.700;8.760;2023-10-09T06:50:08;12.00;87.70
70947;DHT22;58605;48.700;8.760;2023-10-09T06:52:55;12.10;88.00
70947;DHT22;58605;48.700;8.760;2023-10-09T06:55:45;12.20;87.80
70947;DHT22;58605;48.700;8.760;2023-10-09T06:58:14;12.60;87.10
70947;DHT22;58605;48.700;8.760;2023-10-09T07:00:49;12.90;86.30
70947;DHT22;58605;48.700;8.760;2023-10-09T07:03:20;13.00;85.70
70947;DHT22;58605;48.700;8.760;2023-10-09T07:06:03;13.00;86.20
70947;DHT22;58605;48.700;8.760;2023-10-09T07:08:35;13.30;85.20
70947;DHT22;58605;48.700;8.760;2023-10-09T07:11:25;13.40;84.10
70947;DHT22;58605;48.700;8.760;2023-10-09T07:14:06;13.40;84.70
70947;DHT22;58605;48.700;8.760;2023-10-09T07:16:33;13.40;84.30
70947;DHT22;58605;48.700;8.760;2023-10-09T07:19:05;13.60;84.00
70947;DHT22;58605;48.700;8.760;2023-10-09T07:21:50;13.60;82.90
70947;DHT22;58605;48.700;8.760;2023-10-09T07:24:20;13.40;83.80
70947;DHT22;58605;48.700;8.760;2023-10-09T07:26:52;13.60;82.70
70947;DHT22;58605;48.700;8.760;2023-10-09T07:29:20;13.70;82.50
70947;DHT22;58605;48.700;8.760;2023-10-09T07:31:52;13.60;83.20
70947;DHT22;58605;48.700;8.760;2023-10-09T07:34:24;13.70;81.80
70947;DHT22;58605;48.700;8.760;2023-10-09T07:36:57;13.60;82.30
70947;DHT22;58605;48.700;8.760;2023-10-09T07:39:23;13.60;83.30
70947;DHT22;58605;48.700;8.760;2023-10-09T07:41:51;13.70;83.80
70947;DHT22;58605;48.700;8.760;2023-10-09T07:44:41;13.80;81.70
70947;DHT22;58605;48.700;8.760;2023-10-09T07:47:12;13.80;81.40
70947;DHT22;58605;48.700;8.760;2023-10-09T07:49:49;13.90;83.10
70947;DHT22;58605;48.700;8.760;2023-10-09T07:52:20;14.00;84.40
70947;DHT22;58605;48.700;8.760;2023-10-09T07:54:49;14.10;84.20
70947;DHT22;58605;48.700;8.760;2023-10-09T07:57:21;14.20;82.40
70947;DHT22;58605;48.700;8.760;2023-10-09T07:59:52;14.00;83.00
70947;DHT22;58605;48.700;8.760;2023-10-09T08:02:30;14.40;83.00
70947;DHT22;58605;48.700;8.760;2023-10-09T08:05:00;14.20;81.60
70947;DHT22;58605;48.700;8.760;2023-10-09T08:07:33;14.00;80.80
70947;DHT22;58605;48.700;8.760;2023-10-09T08:10:03;14.10;81.70
70947;DHT22;58605;48.700;8.760;2023-10-09T08:12:46;14.00;79.80
70947;DHT22;58605;48.700;8.760;2023-10-09T08:15:13;14.00;80.00
70947;DHT22;58605;48.700;8.760;2023-10-09T08:17:45;14.20;83.00
70947;DHT22;58605;48.700;8.760;2023-10-09T08:20:17;14.20;79.30
70947;DHT22;58605;48.700;8.760;2023-10-09T08:22:43;14.40;82.20
70947;DHT22;58605;48.700;8.760;2023-10-09T08:25:10;14.20;78.80
70947;DHT22;58605;48.700;8.760;2023-10-09T08:27:55;14.00;78.50
70947;DHT22;58605;48.700;8.760;2023-10-09T08:30:22;14.10;78.30
70947;DHT22;58605;48.700;8.760;2023-10-09T08:32:51;14.10;78.70
70947;DHT22;58605;48.700;8.760;2023-10-09T08:35:27;14.10;77.60
70947;DHT22;58605;48.700;8.760;2023-10-09T08:37:57;14.00;77.50
70947;DHT22;58605;48.700;8.760;2023-10-09T08:40:32;14.00;77.60
70947;DHT22;58605;48.700;8.760;2023-10-09T08:43:08;13.90;77.40
70947;DHT22;58605;48.700;8.760;2023-10-09T08:45:37;13.90;77.30
70947;DHT22;58605;48.700;8.760;2023-10-09T08:48:06;13.90;77.10
70947;DHT22;58605;48.700;8.760;2023-10-09T08:50:33;14.00;77.30
70947;DHT22;58605;48.700;8.760;2023-10-09T08:53:01;14.00;76.80
70947;DHT22;58605;48.700;8.760;2023-10-09T08:55:29;14.00;76.70
70947;DHT22;58605;48.700;8.760;2023-10-09T08:57:55;14.10;76.50
70947;DHT22;58605;48.700;8.760;2023-10-09T09:00:25;14.10;76.30
70947;DHT22;58605;48.700;8.760;2023-10-09T09:02:59;14.10;76.50
70947;DHT22;58605;48.700;8.760;2023-10-09T09:05:28;14.10;75.90
70947;DHT22;58605;48.700;8.760;2023-10-09T09:07:55;14.10;75.90
70947;DHT22;58605;48.700;8.760;2023-10-09T09:10:28;14.20;80.50
70947;DHT22;58605;48.700;8.760;2023-10-09T09:13:02;14.60;77.30
70947;DHT22;58605;48.700;8.760;2023-10-09T09:15:31;14.40;75.50
70947;DHT22;58605;48.700;8.760;2023-10-09T09:18:05;14.30;75.90
70947;DHT22;58605;48.700;8.760;2023-10-09T09:20:32;14.20;76.20
70947;DHT22;58605;48.700;8.760;2023-10-09T09:23:03;14.10;76.40
70947;DHT22;58605;48.700;8.760;2023-10-09T09:25:40;14.10;76.60
70947;DHT22;58605;48.700;8.760;2023-10-09T09:28:25;14.00;77.50
70947;DHT22;58605;48.700;8.760;2023-10-09T09:31:09;14.00;77.60
70947;DHT22;58605;48.700;8.760;2023-10-09T09:33:39;14.00;78.40
70947;DHT22;58605;48.700;8.760;2023-10-09T09:36:06;14.00;77.90
70947;DHT22;58605;48.700;8.760;2023-10-09T09:38:34;14.10;77.40
70947;DHT22;58605;48.700;8.760;2023-10-09T09:41:14;14.10;77.20
70947;DHT22;58605;48.700;8.760;2023-10-09T09:43:52;14.10;77.20
70947;DHT22;58605;48.700;8.760;2023-10-09T09:46:23;14.10;77.70
70947;DHT22;58605;48.700;8.760;2023-10-09T09:49:00;14.10;77.00
70947;DHT22;58605;48.700;8.760;2023-10-09T09:51:29;14.10;76.90
70947;DHT22;58605;48.700;8.760;2023-10-09T09:53:56;14.10;76.90
70947;DHT22;58605;48.700;8.760;2023-10-09T09:56:25;14.10;76.90
70947;DHT22;58605;48.700;8.760;2023-10-09T09:58:51;14.10;76.90
70947;DHT22;58605;48.700;8.760;2023-10-09T10:01:28;14.10;77.20
70947;DHT22;58605;48.700;8.760;2023-10-09T10:03:59;14.20;77.30
70947;DHT22;58605;48.700;8.760;2023-10-09T10:06:28;14.20;77.20
70947;DHT22;58605;48.700;8.760;2023-10-09T10:08:58;14.20;77.10
70947;DHT22;58605;48.700;8.760;2023-10-09T10:11:44;14.20;77.00
70947;DHT22;58605;48.700;8.760;2023-10-09T10:14:11;14.20;77.10
70947;DHT22;58605;48.700;8.760;2023-10-09T10:17:05;14.30;77.40
70947;DHT22;58605;48.700;8.760;2023-10-09T10:20:05;14.30;77.60
70947;DHT22;58605;48.700;8.760;2023-10-09T10:22:44;14.30;77.50
70947;DHT22;58605;48.700;8.760;2023-10-09T10:25:32;14.30;78.10
70947;DHT22;58605;48.700;8.760;2023-10-09T10:28:16;14.40;78.40
70947;DHT22;58605;48.700;8.760;2023-10-09T10:30:54;14.40;77.50
70947;DHT22;58605;48.700;8.760;2023-10-09T10:33:22;14.40;77.40
70947;DHT22;58605;48.700;8.760;2023-10-09T10:35:49;14.40;77.20
70947;DHT22;58605;48.700;8.760;2023-10-09T10:38:28;14.50;77.10
70947;DHT22;58605;48.700;8.760;2023-10-09T10:41:12;14.60;76.90
70947;DHT22;58605;48.700;8.760;2023-10-09T10:43:42;14.60;76.70
70947;DHT22;58605;48.700;8.760;2023-10-09T10:46:11;14.80;75.30
70947;DHT22;58605;48.700;8.760;2023-10-09T10:49:00;15.10;74.50
70947;DHT22;58605;48.700;8.760;2023-10-09T10:51:26;15.10;75.00
70947;DHT22;58605;48.700;8.760;2023-10-09T10:54:04;15.10;74.50
70947;DHT22;58605;48.700;8.760;2023-10-09T10:56:49;15.00;74.60
70947;DHT22;58605;48.700;8.760;2023-10-09T10:59:17;15.00;74.20
70947;DHT22;58605;48.700;8.760;2023-10-09T11:01:53;14.90;74.30
70947;DHT22;58605;48.700;8.760;2023-10-09T11:04:27;14.80;74.20
70947;DHT22;58605;48.700;8.760;2023-10-09T11:07:10;14.80;74.30
70947;DHT22;58605;48.700;8.760;2023-10-09T11:09:45;14.70;74.40
70947;DHT22;58605;48.700;8.760;2023-10-09T11:12:30;14.70;74.50
70947;DHT22;58605;48.700;8.760;2023-10-09T11:15:09;14.60;74.20
70947;DHT22;58605;48.700;8.760;2023-10-09T11:17:59;14.60;74.10
70947;DHT22;58605;48.700;8.760;2023-10-09T11:20:33;14.60;74.00
70947;DHT22;58605;48.700;8.760;2023-10-09T11:23:00;14.60;74.10
70947;DHT22;58605;48.700;8.760;2023-10-09T11:25:40;14.60;74.10
70947;DHT22;58605;48.700;8.760;2023-10-09T11:28:17;14.50;73.80
70947;DHT22;58605;48.700;8.760;2023-10-09T11:31:06;14.50;73.60
70947;DHT22;58605;48.700;8.760;2023-10-09T11:33:43;14.60;73.80
70947;DHT22;58605;48.700;8.760;2023-10-09T11:36:11;14.50;73.70
70947;DHT22;58605;48.700;8.760;2023-10-09T11:38:38;14.60;73.30
70947;DHT22;58605;48.700;8.760;2023-10-09T11:41:14;14.60;73.40
70947;DHT22;58605;48.700;8.760;2023-10-09T11:43:52;14.60;73.10
70947;DHT22;58605;48.700;8.760;2023-10-09T11:46:20;14.60;73.00
70947;DHT22;58605;48.700;8.760;2023-10-09T11:49:14;14.50;72.70
70947;DHT22;58605;48.700;8.760;2023-10-09T11:51:48;14.50;72.60
70947;DHT22;58605;48.700;8.760;2023-10-09T11:54:53;14.50;73.10
70947;DHT22;58605;48.700;8.760;2023-10-09T11:57:23;14.50;73.00
70947;DHT22;58605;48.700;8.760;2023-10-09T11:59:56;14.50;72.90
70947;DHT22;58605;48.700;8.760;2023-10-09T12:02:23;14.50;71.60
70947;DHT22;58605;48.700;8.760;2023-10-09T12:04:50;14.50;71.50
70947;DHT22;58605;48.700;8.760;2023-10-09T12:07:18;14.60;71.20
70947;DHT22;58605;48.700;8.760;2023-10-09T12:09:46;14.50;70.60
70947;DHT22;58605;48.700;8.760;2023-10-09T12:12:14;14.50;70.80
70947;DHT22;58605;48.700;8.760;2023-10-09T12:14:40;14.60;70.60
70947;DHT22;58605;48.700;8.760;2023-10-09T12:17:07;14.50;71.10
70947;DHT22;58605;48.700;8.760;2023-10-09T12:19:34;14.50;71.00
70947;DHT22;58605;48.700;8.760;2023-10-09T12:22:01;14.50;70.10
70947;DHT22;58605;48.700;8.760;2023-10-09T12:24:31;14.50;70.60
70947;DHT22;58605;48.700;8.760;2023-10-09T12:26:59;14.60;69.30
70947;DHT22;58605;48.700;8.760;2023-10-09T12:29:26;14.60;70.40
70947;DHT22;58605;48.700;8.760;2023-10-09T12:31:56;14.60;69.20
70947;DHT22;58605;48.700;8.760;2023-10-09T12:34:25;14.60;68.50
70947;DHT22;58605;48.700;8.760;2023-10-09T12:36:57;14.60;68.60
70947;DHT22;58605;48.700;8.760;2023-10-09T12:39:31;14.50;68.90
70947;DHT22;58605;48.700;8.760;2023-10-09T12:41:59;14.50;70.30
70947;DHT22;58605;48.700;8.760;2023-10-09T12:44:32;14.50;71.40
70947;DHT22;58605;48.700;8.760;2023-10-09T12:47:00;14.50;72.50
70947;DHT22;58605;48.700;8.760;2023-10-09T12:49:30;14.60;71.80
70947;DHT22;58605;48.700;8.760;2023-10-09T12:51:56;14.60;73.20
70947;DHT22;58605;48.700;8.760;2023-10-09T12:54:25;14.50;73.40
70947;DHT22;58605;48.700;8.760;2023-10-09T12:56:55;14.60;74.10
70947;DHT22;58605;48.700;8.760;2023-10-09T12:59:22;14.70;69.00
70947;DHT22;58605;48.700;8.760;2023-10-09T13:01:50;14.70;69.90
70947;DHT22;58605;48.700;8.760;2023-10-09T13:04:23;14.80;67.50
70947;DHT22;58605;48.700;8.760;2023-10-09T13:06:50;14.80;70.10
70947;DHT22;58605;48.700;8.760;2023-10-09T13:09:20;14.90;67.80
70947;DHT22;58605;48.700;8.760;2023-10-09T13:12:09;15.10;65.40
70947;DHT22;58605;48.700;8.760;2023-10-09T13:14:43;15.10;65.60
70947;DHT22;58605;48.700;8.760;2023-10-09T13:17:11;15.10;65.10
70947;DHT22;58605;48.700;8.760;2023-10-09T13:19:39;15.00;65.40
70947;DHT22;58605;48.700;8.760;2023-10-09T13:22:05;15.00;65.50
70947;DHT22;58605;48.700;8.760;2023-10-09T13:24:39;14.90;66.10
70947;DHT22;58605;48.700;8.760;2023-10-09T13:27:05;14.90;67.00
70947;DHT22;58605;48.700;8.760;2023-10-09T13:29:36;15.00;65.00
70947;DHT22;58605;48.700;8.760;2023-10-09T13:32:06;14.90;65.20
70947;DHT22;58605;48.700;8.760;2023-10-09T13:34:39;14.90;66.50
70947;DHT22;58605;48.700;8.760;2023-10-09T13:37:10;14.90;66.40
70947;DHT22;58605;48.700;8.760;2023-10-09T13:39:39;14.90;66.10
70947;DHT22;58605;48.700;8.760;2023-10-09T13:42:17;14.90;65.30
70947;DHT22;58605;48.700;8.760;2023-10-09T13:44:45;14.90;65.10
70947;DHT22;58605;48.700;8.760;2023-10-09T13:47:14;14.90;65.00
70947;DHT22;58605;48.700;8.760;2023-10-09T13:49:45;14.90;68.10
70947;DHT22;58605;48.700;8.760;2023-10-09T13:52:11;14.90;66.30
70947;DHT22;58605;48.700;8.760;2023-10-09T13:54:44;14.90;66.60
70947;DHT22;58605;48.700;8.760;2023-10-09T13:57:14;14.90;65.40
70947;DHT22;58605;48.700;8.760;2023-10-09T13:59:41;15.00;65.30
70947;DHT22;58605;48.700;8.760;2023-10-09T14:02:18;15.00;65.00
70947;DHT22;58605;48.700;8.760;2023-10-09T14:04:47;15.00;65.10
70947;DHT22;58605;48.700;8.760;2023-10-09T14:07:14;15.00;65.90
70947;DHT22;58605;48.700;8.760;2023-10-09T14:09:44;15.00;65.60
70947;DHT22;58605;48.700;8.760;2023-10-09T14:12:10;15.00;65.70
70947;DHT22;58605;48.700;8.760;2023-10-09T14:14:38;15.10;65.10
70947;DHT22;58605;48.700;8.760;2023-10-09T14:17:06;15.10;65.30
70947;DHT22;58605;48.700;8.760;2023-10-09T14:19:41;15.30;64.50
70947;DHT22;58605;48.700;8.760;2023-10-09T14:22:12;15.70;62.50
70947;DHT22;58605;48.700;8.760;2023-10-09T14:24:41;15.80;64.70
70947;DHT22;58605;48.700;8.760;2023-10-09T14:27:11;15.80;62.00
70947;DHT22;58605;48.700;8.760;2023-10-09T14:29:43;16.10;59.40
70947;DHT22;58605;48.700;8.760;2023-10-09T14:32:10;16.20;61.10
70947;DHT22;58605;48.700;8.760;2023-10-09T14:34:41;16.10;62.80
70947;DHT22;58605;48.700;8.760;2023-10-09T14:37:17;15.90;61.40
70947;DHT22;58605;48.700;8.760;2023-10-09T14:39:44;15.80;63.90
70947;DHT22;58605;48.700;8.760;2023-10-09T14:42:16;15.90;62.00
70947;DHT22;58605;48.700;8.760;2023-10-09T14:44:43;15.80;64.00
70947;DHT22;58605;48.700;8.760;2023-10-09T14:47:13;15.70;66.20
70947;DHT22;58605;48.700;8.760;2023-10-09T14:49:47;15.80;61.50
70947;DHT22;58605;48.700;8.760;2023-10-09T14:52:14;15.80;62.30
70947;DHT22;58605;48.700;8.760;2023-10-09T14:54:44;15.70;63.10
70947;DHT22;58605;48.700;8.760;2023-10-09T14:57:11;15.70;62.10
70947;DHT22;58605;48.700;8.760;2023-10-09T14:59:37;15.60;62.30
70947;DHT22;58605;48.700;8.760;2023-10-09T15:02:04;15.60;62.40
70947;DHT22;58605;48.700;8.760;2023-10-09T15:04:33;15.50;62.30
70947;DHT22;58605;48.700;8.760;2023-10-09T15:07:04;15.50;62.10
70947;DHT22;58605;48.700;8.760;2023-10-09T15:09:52;15.50;62.20
70947;DHT22;58605;48.700;8.760;2023-10-09T15:12:39;15.50;62.40
70947;DHT22;58605;48.700;8.760;2023-10-09T15:15:15;15.50;61.80
70947;DHT22;58605;48.700;8.760;2023-10-09T15:17:43;15.50;62.50
70947;DHT22;58605;48.700;8.760;2023-10-09T15:20:11;15.40;62.20
70947;DHT22;58605;48.700;8.760;2023-10-09T15:22:40;15.40;62.30
70947;DHT22;58605;48.700;8.760;2023-10-09T15:25:07;15.40;62.30
70947;DHT22;58605;48.700;8.760;2023-10-09T15:27:33;15.30;61.90
70947;DHT22;58605;48.700;8.760;2023-10-09T15:30:01;15.30;64.20
70947;DHT22;58605;48.700;8.760;2023-10-09T15:32:27;15.30;63.60
70947;DHT22;58605;48.700;8.760;2023-10-09T15:34:55;15.40;62.50
70947;DHT22;58605;48.700;8.760;2023-10-09T15:37:22;15.30;62.80
70947;DHT22;58605;48.700;8.760;2023-10-09T15:39:49;15.30;63.00
70947;DHT22;58605;48.700;8.760;2023-10-09T15:42:15;15.30;63.70
70947;DHT22;58605;48.700;8.760;2023-10-09T15:44:42;15.30;63.60
70947;DHT22;58605;48.700;8.760;2023-10-09T15:47:09;15.40;62.50
70947;DHT22;58605;48.700;8.760;2023-10-09T15:49:38;15.40;62.30
70947;DHT22;58605;48.700;8.760;2023-10-09T15:52:09;15.40;62.10
70947;DHT22;58605;48.700;8.760;2023-10-09T15:54:40;15.40;62.00
70947;DHT22;58605;48.700;8.760;2023-10-09T15:57:08;15.40;61.90
70947;DHT22;58605;48.700;8.760;2023-10-09T15:59:36;15.40;61.90
70947;DHT22;58605;48.700;8.760;2023-10-09T16:02:02;15.40;61.90
70947;DHT22;58605;48.700;8.760;2023-10-09T16:04:30;15.40;61.80
70947;DHT22;58605;48.700;8.760;2023-10-09T16:07:00;15.40;62.00
70947;DHT22;58605;48.700;8.760;2023-10-09T16:09:26;15.40;61.90